Главная страница
METAR-TAF:

METAR-TAF

Аэропорты :

Линчёпинг, Швеция

широта: 58-24N, долгота: 015-41E, высота над уровнем моря: 52 м

Текущие метеонаблюдения

Эта сводка был подготовлена 35 минут назад, в 16:20 UTC
Ветер 9 Узел от восточно-северо-восточный
Температура 14°C
Влажность 82%
Давление 1008 hPa
Видимость 10 км и более
Рассеянная облачность на высоте 4300 фута

METAR: ESSL 221620Z 06009KT 9999 BKN043 14/11 Q1008

Время: 18:55 (16:55 UTC)

Прогноз

Эта сводка был подготовлена 2 часа и 25 минут назад, в 14:30 UTC
Прогноз действительный с 22-го 15 UTC до 22-го 17 UTC
Ветер 8 Узел от восточно-северо-восточный
Видимость 10 км и более
небольшая облачность на высоте 3500 фута
Сплошная облачность на высоте 5500 фута

TAF: ESSL 221430Z 2215/2217 07008KT 9999 FEW035 OVC055

Метеонаблюдения и прогнозы для более 4000 аэропортов (сводки METAR и TAF).

Имеющиеся станции представлены на карте желтыми и красными точками.

Чтобы увидеть название станции, наведите на нее мышь.

Затем щелкните, чтобы увидеть метеонаблюдения и метеопрогнозы.

Управление картой: чтобы увеличить масштаб, щелкните зеленые кнопки с черным крестиком; чтобы уменьшить масштаб, щелкните зеленую кнопку с тире; для просмотра соседних карт щелкайте зеленые стрелки.


METAR-TAF: